sensor_id;sensor_type;location;lat;lon;timestamp;temperature;humidity
18160;DHT22;9205;52.032;4.314;2023-12-07T00:02:21;2.70;99.90
18160;DHT22;9205;52.032;4.314;2023-12-07T00:04:49;2.50;99.90
18160;DHT22;9205;52.032;4.314;2023-12-07T00:07:17;2.30;99.90
18160;DHT22;9205;52.032;4.314;2023-12-07T00:09:44;2.30;99.90
18160;DHT22;9205;52.032;4.314;2023-12-07T00:12:11;2.60;99.90
18160;DHT22;9205;52.032;4.314;2023-12-07T00:14:38;2.90;99.90
18160;DHT22;9205;52.032;4.314;2023-12-07T00:17:05;2.90;99.90
18160;DHT22;9205;52.032;4.314;2023-12-07T00:19:32;2.20;99.90
18160;DHT22;9205;52.032;4.314;2023-12-07T00:22:01;2.20;99.90
18160;DHT22;9205;52.032;4.314;2023-12-07T00:24:28;2.80;99.90
18160;DHT22;9205;52.032;4.314;2023-12-07T00:26:56;2.70;99.90
18160;DHT22;9205;52.032;4.314;2023-12-07T00:29:23;2.20;99.90
18160;DHT22;9205;52.032;4.314;2023-12-07T00:31:50;2.10;99.90
18160;DHT22;9205;52.032;4.314;2023-12-07T00:34:17;2.50;99.90
18160;DHT22;9205;52.032;4.314;2023-12-07T00:36:45;2.10;99.90
18160;DHT22;9205;52.032;4.314;2023-12-07T00:39:13;2.80;99.90
18160;DHT22;9205;52.032;4.314;2023-12-07T00:41:42;2.00;99.90
18160;DHT22;9205;52.032;4.314;2023-12-07T00:44:09;2.20;99.90
18160;DHT22;9205;52.032;4.314;2023-12-07T00:46:36;2.60;99.90
18160;DHT22;9205;52.032;4.314;2023-12-07T00:49:03;2.50;99.90
18160;DHT22;9205;52.032;4.314;2023-12-07T00:51:31;2.40;99.90
18160;DHT22;9205;52.032;4.314;2023-12-07T00:53:58;2.60;99.90
18160;DHT22;9205;52.032;4.314;2023-12-07T00:56:26;2.50;99.90
18160;DHT22;9205;52.032;4.314;2023-12-07T00:58:53;2.30;99.90
18160;DHT22;9205;52.032;4.314;2023-12-07T01:01:21;2.10;99.90
18160;DHT22;9205;52.032;4.314;2023-12-07T01:03:48;2.70;99.90
18160;DHT22;9205;52.032;4.314;2023-12-07T01:06:15;2.30;99.90
18160;DHT22;9205;52.032;4.314;2023-12-07T01:08:42;1.80;99.90
18160;DHT22;9205;52.032;4.314;2023-12-07T01:11:09;2.60;99.90
18160;DHT22;9205;52.032;4.314;2023-12-07T01:13:38;2.60;99.90
18160;DHT22;9205;52.032;4.314;2023-12-07T01:16:06;1.80;99.90
18160;DHT22;9205;52.032;4.314;2023-12-07T01:18:33;2.10;99.90
18160;DHT22;9205;52.032;4.314;2023-12-07T01:21:00;2.60;99.90
18160;DHT22;9205;52.032;4.314;2023-12-07T01:23:27;2.00;99.90
18160;DHT22;9205;52.032;4.314;2023-12-07T01:25:54;1.80;99.90
18160;DHT22;9205;52.032;4.314;2023-12-07T01:28:21;2.60;99.90
18160;DHT22;9205;52.032;4.314;2023-12-07T01:30:50;2.30;99.90
18160;DHT22;9205;52.032;4.314;2023-12-07T01:33:17;1.90;99.90
18160;DHT22;9205;52.032;4.314;2023-12-07T01:35:44;2.20;99.90
18160;DHT22;9205;52.032;4.314;2023-12-07T01:38:11;2.20;99.90
18160;DHT22;9205;52.032;4.314;2023-12-07T01:40:39;2.60;99.90
18160;DHT22;9205;52.032;4.314;2023-12-07T01:43:06;2.20;99.90
18160;DHT22;9205;52.032;4.314;2023-12-07T01:45:33;2.50;99.90
18160;DHT22;9205;52.032;4.314;2023-12-07T01:48:02;2.40;99.90
18160;DHT22;9205;52.032;4.314;2023-12-07T01:50:30;2.90;99.90
18160;DHT22;9205;52.032;4.314;2023-12-07T01:53:01;2.30;99.90
18160;DHT22;9205;52.032;4.314;2023-12-07T01:55:30;3.10;99.90
18160;DHT22;9205;52.032;4.314;2023-12-07T01:57:58;3.10;99.90
18160;DHT22;9205;52.032;4.314;2023-12-07T02:00:26;2.60;99.90
18160;DHT22;9205;52.032;4.314;2023-12-07T02:02:54;2.90;99.90
18160;DHT22;9205;52.032;4.314;2023-12-07T02:05:24;2.40;99.90
18160;DHT22;9205;52.032;4.314;2023-12-07T02:07:52;2.30;99.90
18160;DHT22;9205;52.032;4.314;2023-12-07T02:10:20;2.30;99.90
18160;DHT22;9205;52.032;4.314;2023-12-07T02:12:48;2.90;99.90
18160;DHT22;9205;52.032;4.314;2023-12-07T02:15:15;2.50;99.90
18160;DHT22;9205;52.032;4.314;2023-12-07T02:17:50;3.10;99.90
18160;DHT22;9205;52.032;4.314;2023-12-07T02:20:28;3.20;99.90
18160;DHT22;9205;52.032;4.314;2023-12-07T02:23:02;3.00;99.90
18160;DHT22;9205;52.032;4.314;2023-12-07T02:25:36;3.30;99.90
18160;DHT22;9205;52.032;4.314;2023-12-07T02:28:08;2.60;99.90
18160;DHT22;9205;52.032;4.314;2023-12-07T02:30:35;2.70;99.90
18160;DHT22;9205;52.032;4.314;2023-12-07T02:33:03;3.00;99.90
18160;DHT22;9205;52.032;4.314;2023-12-07T02:35:31;2.70;99.90
18160;DHT22;9205;52.032;4.314;2023-12-07T02:38:00;2.70;99.90
18160;DHT22;9205;52.032;4.314;2023-12-07T02:40:29;2.50;99.90
18160;DHT22;9205;52.032;4.314;2023-12-07T02:42:57;2.40;99.90
18160;DHT22;9205;52.032;4.314;2023-12-07T02:45:27;2.60;99.90
18160;DHT22;9205;52.032;4.314;2023-12-07T02:47:54;2.40;99.90
18160;DHT22;9205;52.032;4.314;2023-12-07T02:50:23;2.30;99.90
18160;DHT22;9205;52.032;4.314;2023-12-07T02:52:50;2.70;99.90
18160;DHT22;9205;52.032;4.314;2023-12-07T02:55:18;3.20;99.90
18160;DHT22;9205;52.032;4.314;2023-12-07T02:57:45;3.20;99.90
18160;DHT22;9205;52.032;4.314;2023-12-07T03:00:13;3.20;99.90
18160;DHT22;9205;52.032;4.314;2023-12-07T03:02:43;2.90;99.90
18160;DHT22;9205;52.032;4.314;2023-12-07T03:05:10;2.80;99.90
18160;DHT22;9205;52.032;4.314;2023-12-07T03:07:37;2.80;99.90
18160;DHT22;9205;52.032;4.314;2023-12-07T03:10:05;3.20;99.90
18160;DHT22;9205;52.032;4.314;2023-12-07T03:12:33;3.30;99.90
18160;DHT22;9205;52.032;4.314;2023-12-07T03:15:00;2.90;99.90
18160;DHT22;9205;52.032;4.314;2023-12-07T03:17:28;3.00;99.90
18160;DHT22;9205;52.032;4.314;2023-12-07T03:19:57;2.40;99.90
18160;DHT22;9205;52.032;4.314;2023-12-07T03:22:24;2.40;99.90
18160;DHT22;9205;52.032;4.314;2023-12-07T03:24:52;3.30;99.90
18160;DHT22;9205;52.032;4.314;2023-12-07T03:27:19;2.70;99.90
18160;DHT22;9205;52.032;4.314;2023-12-07T03:29:47;3.30;99.90
18160;DHT22;9205;52.032;4.314;2023-12-07T03:32:14;2.60;99.90
18160;DHT22;9205;52.032;4.314;2023-12-07T03:34:41;3.20;99.90
18160;DHT22;9205;52.032;4.314;2023-12-07T03:37:09;3.10;99.90
18160;DHT22;9205;52.032;4.314;2023-12-07T03:39:37;3.10;99.90
18160;DHT22;9205;52.032;4.314;2023-12-07T03:42:04;2.90;99.90
18160;DHT22;9205;52.032;4.314;2023-12-07T03:44:32;3.20;99.90
18160;DHT22;9205;52.032;4.314;2023-12-07T03:46:59;2.60;99.90
18160;DHT22;9205;52.032;4.314;2023-12-07T03:49:26;3.00;99.90
18160;DHT22;9205;52.032;4.314;2023-12-07T03:51:54;2.80;99.90
18160;DHT22;9205;52.032;4.314;2023-12-07T03:54:23;3.20;99.90
18160;DHT22;9205;52.032;4.314;2023-12-07T03:56:50;2.20;99.90
18160;DHT22;9205;52.032;4.314;2023-12-07T03:59:17;2.30;99.90
18160;DHT22;9205;52.032;4.314;2023-12-07T04:01:44;2.10;99.90
18160;DHT22;9205;52.032;4.314;2023-12-07T04:04:11;2.10;99.90
18160;DHT22;9205;52.032;4.314;2023-12-07T04:06:39;3.10;99.90
18160;DHT22;9205;52.032;4.314;2023-12-07T04:09:06;3.20;99.90
18160;DHT22;9205;52.032;4.314;2023-12-07T04:11:34;2.80;99.90
18160;DHT22;9205;52.032;4.314;2023-12-07T04:14:01;2.80;99.90
18160;DHT22;9205;52.032;4.314;2023-12-07T04:16:29;3.10;99.90
18160;DHT22;9205;52.032;4.314;2023-12-07T04:18:56;3.10;99.90
18160;DHT22;9205;52.032;4.314;2023-12-07T04:21:23;2.30;99.90
18160;DHT22;9205;52.032;4.314;2023-12-07T04:23:51;2.80;99.90
18160;DHT22;9205;52.032;4.314;2023-12-07T04:26:18;2.50;99.90
18160;DHT22;9205;52.032;4.314;2023-12-07T04:28:46;2.60;99.90
18160;DHT22;9205;52.032;4.314;2023-12-07T04:31:14;2.80;99.90
18160;DHT22;9205;52.032;4.314;2023-12-07T04:33:41;2.00;99.90
18160;DHT22;9205;52.032;4.314;2023-12-07T04:36:09;2.50;99.90
18160;DHT22;9205;52.032;4.314;2023-12-07T04:38:36;2.30;99.90
18160;DHT22;9205;52.032;4.314;2023-12-07T04:41:04;2.50;99.90
18160;DHT22;9205;52.032;4.314;2023-12-07T04:43:31;2.00;99.90
18160;DHT22;9205;52.032;4.314;2023-12-07T04:46:00;1.60;99.90
18160;DHT22;9205;52.032;4.314;2023-12-07T04:48:27;1.60;99.90
18160;DHT22;9205;52.032;4.314;2023-12-07T04:50:54;2.40;99.90
18160;DHT22;9205;52.032;4.314;2023-12-07T04:53:21;2.00;99.90
18160;DHT22;9205;52.032;4.314;2023-12-07T04:55:50;1.40;99.90
18160;DHT22;9205;52.032;4.314;2023-12-07T04:58:17;2.20;99.90
18160;DHT22;9205;52.032;4.314;2023-12-07T05:00:44;2.10;99.90
18160;DHT22;9205;52.032;4.314;2023-12-07T05:03:12;2.30;99.90
18160;DHT22;9205;52.032;4.314;2023-12-07T05:05:40;2.30;99.90
18160;DHT22;9205;52.032;4.314;2023-12-07T05:08:07;1.40;99.90
18160;DHT22;9205;52.032;4.314;2023-12-07T05:10:34;1.80;99.90
18160;DHT22;9205;52.032;4.314;2023-12-07T05:13:01;1.90;99.90
18160;DHT22;9205;52.032;4.314;2023-12-07T05:15:28;1.20;99.90
18160;DHT22;9205;52.032;4.314;2023-12-07T05:17:55;2.00;99.90
18160;DHT22;9205;52.032;4.314;2023-12-07T05:20:24;1.00;99.90
18160;DHT22;9205;52.032;4.314;2023-12-07T05:22:54;0.90;99.90
18160;DHT22;9205;52.032;4.314;2023-12-07T05:25:21;1.70;99.90
18160;DHT22;9205;52.032;4.314;2023-12-07T05:27:48;1.00;99.90
18160;DHT22;9205;52.032;4.314;2023-12-07T05:30:16;1.00;99.90
18160;DHT22;9205;52.032;4.314;2023-12-07T05:32:43;2.00;99.90
18160;DHT22;9205;52.032;4.314;2023-12-07T05:35:10;1.50;99.90
18160;DHT22;9205;52.032;4.314;2023-12-07T05:37:39;1.40;99.90
18160;DHT22;9205;52.032;4.314;2023-12-07T05:40:07;2.10;99.90
18160;DHT22;9205;52.032;4.314;2023-12-07T05:42:37;2.10;99.90
18160;DHT22;9205;52.032;4.314;2023-12-07T05:45:06;1.70;99.90
18160;DHT22;9205;52.032;4.314;2023-12-07T05:47:35;2.10;99.90
18160;DHT22;9205;52.032;4.314;2023-12-07T05:50:03;2.20;99.90
18160;DHT22;9205;52.032;4.314;2023-12-07T05:52:30;1.00;99.90
18160;DHT22;9205;52.032;4.314;2023-12-07T05:54:59;1.20;99.90
18160;DHT22;9205;52.032;4.314;2023-12-07T05:57:26;1.10;99.90
18160;DHT22;9205;52.032;4.314;2023-12-07T05:59:54;1.80;99.90
18160;DHT22;9205;52.032;4.314;2023-12-07T06:02:21;2.10;99.90
18160;DHT22;9205;52.032;4.314;2023-12-07T06:04:48;2.10;99.90
18160;DHT22;9205;52.032;4.314;2023-12-07T06:07:15;1.40;99.90
18160;DHT22;9205;52.032;4.314;2023-12-07T06:09:42;2.10;99.90
18160;DHT22;9205;52.032;4.314;2023-12-07T06:12:11;1.20;99.90
18160;DHT22;9205;52.032;4.314;2023-12-07T06:14:38;2.00;99.90
18160;DHT22;9205;52.032;4.314;2023-12-07T06:17:05;1.70;99.90
18160;DHT22;9205;52.032;4.314;2023-12-07T06:19:33;2.10;99.90
18160;DHT22;9205;52.032;4.314;2023-12-07T06:22:00;0.90;99.90
18160;DHT22;9205;52.032;4.314;2023-12-07T06:24:28;1.10;99.90
18160;DHT22;9205;52.032;4.314;2023-12-07T06:26:55;1.80;99.90
18160;DHT22;9205;52.032;4.314;2023-12-07T06:29:24;1.90;99.90
18160;DHT22;9205;52.032;4.314;2023-12-07T06:31:51;1.40;99.90
18160;DHT22;9205;52.032;4.314;2023-12-07T06:34:18;1.40;99.90
18160;DHT22;9205;52.032;4.314;2023-12-07T06:36:46;2.10;99.90
18160;DHT22;9205;52.032;4.314;2023-12-07T06:39:14;1.00;99.90
18160;DHT22;9205;52.032;4.314;2023-12-07T06:41:41;2.10;99.90
18160;DHT22;9205;52.032;4.314;2023-12-07T06:44:08;1.70;99.90
18160;DHT22;9205;52.032;4.314;2023-12-07T06:46:36;1.00;99.90
18160;DHT22;9205;52.032;4.314;2023-12-07T06:49:05;0.90;99.90
18160;DHT22;9205;52.032;4.314;2023-12-07T06:51:32;2.00;99.90
18160;DHT22;9205;52.032;4.314;2023-12-07T06:53:59;1.00;99.90
18160;DHT22;9205;52.032;4.314;2023-12-07T06:56:26;1.40;99.90
18160;DHT22;9205;52.032;4.314;2023-12-07T06:58:53;2.00;99.90
18160;DHT22;9205;52.032;4.314;2023-12-07T07:01:20;1.30;99.90
18160;DHT22;9205;52.032;4.314;2023-12-07T07:03:49;1.70;99.90
18160;DHT22;9205;52.032;4.314;2023-12-07T07:06:16;1.50;99.90
18160;DHT22;9205;52.032;4.314;2023-12-07T07:08:43;1.90;99.90
18160;DHT22;9205;52.032;4.314;2023-12-07T07:11:12;0.70;99.90
18160;DHT22;9205;52.032;4.314;2023-12-07T07:13:40;0.80;99.90
18160;DHT22;9205;52.032;4.314;2023-12-07T07:16:08;1.80;99.90
18160;DHT22;9205;52.032;4.314;2023-12-07T07:18:37;1.30;99.90
18160;DHT22;9205;52.032;4.314;2023-12-07T07:21:06;1.30;99.90
18160;DHT22;9205;52.032;4.314;2023-12-07T07:23:35;2.00;99.90
18160;DHT22;9205;52.032;4.314;2023-12-07T07:26:02;1.00;99.90
18160;DHT22;9205;52.032;4.314;2023-12-07T07:28:30;1.00;99.90
18160;DHT22;9205;52.032;4.314;2023-12-07T07:30:58;2.00;99.90
18160;DHT22;9205;52.032;4.314;2023-12-07T07:33:25;1.20;99.90
18160;DHT22;9205;52.032;4.314;2023-12-07T07:35:52;1.70;99.90
18160;DHT22;9205;52.032;4.314;2023-12-07T07:38:22;1.20;99.90
18160;DHT22;9205;52.032;4.314;2023-12-07T07:40:49;1.30;99.90
18160;DHT22;9205;52.032;4.314;2023-12-07T07:43:17;0.90;99.90
18160;DHT22;9205;52.032;4.314;2023-12-07T07:45:44;1.70;99.90
18160;DHT22;9205;52.032;4.314;2023-12-07T07:48:12;0.90;99.90
18160;DHT22;9205;52.032;4.314;2023-12-07T07:50:39;2.20;99.90
18160;DHT22;9205;52.032;4.314;2023-12-07T07:53:06;1.90;99.90
18160;DHT22;9205;52.032;4.314;2023-12-07T07:55:34;1.10;99.90
18160;DHT22;9205;52.032;4.314;2023-12-07T07:58:02;1.30;99.90
18160;DHT22;9205;52.032;4.314;2023-12-07T08:00:29;1.20;99.90
18160;DHT22;9205;52.032;4.314;2023-12-07T08:02:58;2.00;99.90
18160;DHT22;9205;52.032;4.314;2023-12-07T08:05:25;0.90;99.90
18160;DHT22;9205;52.032;4.314;2023-12-07T08:07:52;2.20;99.90
18160;DHT22;9205;52.032;4.314;2023-12-07T08:10:20;2.20;99.90
18160;DHT22;9205;52.032;4.314;2023-12-07T08:12:48;1.20;99.90
18160;DHT22;9205;52.032;4.314;2023-12-07T08:15:16;1.70;99.90
18160;DHT22;9205;52.032;4.314;2023-12-07T08:17:43;2.10;99.90
18160;DHT22;9205;52.032;4.314;2023-12-07T08:20:11;2.20;99.90
18160;DHT22;9205;52.032;4.314;2023-12-07T08:22:40;1.30;99.90
18160;DHT22;9205;52.032;4.314;2023-12-07T08:25:08;2.20;99.90
18160;DHT22;9205;52.032;4.314;2023-12-07T08:27:37;2.10;99.90
18160;DHT22;9205;52.032;4.314;2023-12-07T08:30:07;1.20;99.90
18160;DHT22;9205;52.032;4.314;2023-12-07T08:32:36;2.20;99.90
18160;DHT22;9205;52.032;4.314;2023-12-07T08:35:03;2.40;99.90
18160;DHT22;9205;52.032;4.314;2023-12-07T08:37:32;2.40;99.90
18160;DHT22;9205;52.032;4.314;2023-12-07T08:39:59;2.40;99.90
18160;DHT22;9205;52.032;4.314;2023-12-07T08:42:26;2.50;99.90
18160;DHT22;9205;52.032;4.314;2023-12-07T08:44:53;2.00;99.90
18160;DHT22;9205;52.032;4.314;2023-12-07T08:47:22;2.00;99.90
18160;DHT22;9205;52.032;4.314;2023-12-07T08:49:53;1.60;99.90
18160;DHT22;9205;52.032;4.314;2023-12-07T08:52:20;2.40;99.90
18160;DHT22;9205;52.032;4.314;2023-12-07T08:54:47;2.30;99.90
18160;DHT22;9205;52.032;4.314;2023-12-07T08:57:15;2.30;99.90
18160;DHT22;9205;52.032;4.314;2023-12-07T08:59:44;1.50;99.90
18160;DHT22;9205;52.032;4.314;2023-12-07T09:02:11;2.50;99.90
18160;DHT22;9205;52.032;4.314;2023-12-07T09:04:40;2.60;99.90
18160;DHT22;9205;52.032;4.314;2023-12-07T09:07:07;1.30;99.90
18160;DHT22;9205;52.032;4.314;2023-12-07T09:09:34;2.40;99.90
18160;DHT22;9205;52.032;4.314;2023-12-07T09:12:02;1.50;99.90
18160;DHT22;9205;52.032;4.314;2023-12-07T09:14:30;2.80;99.90
18160;DHT22;9205;52.032;4.314;2023-12-07T09:16:58;2.70;99.90
18160;DHT22;9205;52.032;4.314;2023-12-07T09:19:25;2.60;99.90
18160;DHT22;9205;52.032;4.314;2023-12-07T09:21:54;1.80;99.90
18160;DHT22;9205;52.032;4.314;2023-12-07T09:24:21;1.70;99.90
18160;DHT22;9205;52.032;4.314;2023-12-07T09:26:48;1.50;99.90
18160;DHT22;9205;52.032;4.314;2023-12-07T09:29:15;2.60;99.90
18160;DHT22;9205;52.032;4.314;2023-12-07T09:31:43;2.30;99.90
18160;DHT22;9205;52.032;4.314;2023-12-07T09:34:10;2.80;99.90
18160;DHT22;9205;52.032;4.314;2023-12-07T09:36:37;3.00;99.90
18160;DHT22;9205;52.032;4.314;2023-12-07T09:39:06;2.50;99.90
18160;DHT22;9205;52.032;4.314;2023-12-07T09:41:33;1.60;99.90
18160;DHT22;9205;52.032;4.314;2023-12-07T09:44:00;3.00;99.90
18160;DHT22;9205;52.032;4.314;2023-12-07T09:46:30;2.80;99.90
18160;DHT22;9205;52.032;4.314;2023-12-07T09:48:58;2.20;99.90
18160;DHT22;9205;52.032;4.314;2023-12-07T09:51:26;2.00;99.90
18160;DHT22;9205;52.032;4.314;2023-12-07T09:53:55;3.10;99.90
18160;DHT22;9205;52.032;4.314;2023-12-07T09:56:23;2.60;99.90
18160;DHT22;9205;52.032;4.314;2023-12-07T09:58:50;2.90;99.90
18160;DHT22;9205;52.032;4.314;2023-12-07T10:01:17;1.90;99.90
18160;DHT22;9205;52.032;4.314;2023-12-07T10:03:44;2.80;99.90
18160;DHT22;9205;52.032;4.314;2023-12-07T10:06:12;1.90;99.90
18160;DHT22;9205;52.032;4.314;2023-12-07T10:08:40;3.20;99.90
18160;DHT22;9205;52.032;4.314;2023-12-07T10:11:08;3.00;99.90
18160;DHT22;9205;52.032;4.314;2023-12-07T10:13:38;2.30;99.90
18160;DHT22;9205;52.032;4.314;2023-12-07T10:16:11;2.00;99.90
18160;DHT22;9205;52.032;4.314;2023-12-07T10:18:41;3.10;99.90
18160;DHT22;9205;52.032;4.314;2023-12-07T10:21:09;3.00;99.90
18160;DHT22;9205;52.032;4.314;2023-12-07T10:23:37;3.40;99.90
18160;DHT22;9205;52.032;4.314;2023-12-07T10:26:05;3.00;99.90
18160;DHT22;9205;52.032;4.314;2023-12-07T10:28:34;2.80;99.90
18160;DHT22;9205;52.032;4.314;2023-12-07T10:31:08;2.80;99.90
18160;DHT22;9205;52.032;4.314;2023-12-07T10:33:36;2.80;99.90
18160;DHT22;9205;52.032;4.314;2023-12-07T10:36:04;3.50;99.90
18160;DHT22;9205;52.032;4.314;2023-12-07T10:38:32;3.40;99.90
18160;DHT22;9205;52.032;4.314;2023-12-07T10:41:05;3.00;99.90
18160;DHT22;9205;52.032;4.314;2023-12-07T10:43:37;3.50;99.90
18160;DHT22;9205;52.032;4.314;2023-12-07T10:46:07;2.60;99.90
18160;DHT22;9205;52.032;4.314;2023-12-07T10:48:36;3.70;99.90
18160;DHT22;9205;52.032;4.314;2023-12-07T10:51:07;3.40;99.90
18160;DHT22;9205;52.032;4.314;2023-12-07T10:53:40;2.50;99.90
18160;DHT22;9205;52.032;4.314;2023-12-07T10:56:13;3.10;99.90
18160;DHT22;9205;52.032;4.314;2023-12-07T10:58:45;3.70;99.90
18160;DHT22;9205;52.032;4.314;2023-12-07T11:01:17;2.70;99.90
18160;DHT22;9205;52.032;4.314;2023-12-07T11:03:49;3.70;99.90
18160;DHT22;9205;52.032;4.314;2023-12-07T11:06:19;2.80;99.90
18160;DHT22;9205;52.032;4.314;2023-12-07T11:08:50;3.30;99.90
18160;DHT22;9205;52.032;4.314;2023-12-07T11:11:24;2.80;99.90
18160;DHT22;9205;52.032;4.314;2023-12-07T11:13:59;3.30;99.90
18160;DHT22;9205;52.032;4.314;2023-12-07T11:16:31;3.60;99.90
18160;DHT22;9205;52.032;4.314;2023-12-07T11:18:59;3.70;99.90
18160;DHT22;9205;52.032;4.314;2023-12-07T11:21:27;3.50;99.90
18160;DHT22;9205;52.032;4.314;2023-12-07T11:23:54;3.70;99.90
18160;DHT22;9205;52.032;4.314;2023-12-07T11:26:23;3.60;99.90
18160;DHT22;9205;52.032;4.314;2023-12-07T11:28:51;3.70;99.90
18160;DHT22;9205;52.032;4.314;2023-12-07T11:31:19;3.90;99.90
18160;DHT22;9205;52.032;4.314;2023-12-07T11:33:49;3.20;99.90
18160;DHT22;9205;52.032;4.314;2023-12-07T11:36:16;4.10;99.90
18160;DHT22;9205;52.032;4.314;2023-12-07T11:39:17;3.70;99.90
18160;DHT22;9205;52.032;4.314;2023-12-07T11:41:54;4.20;99.90
18160;DHT22;9205;52.032;4.314;2023-12-07T11:44:25;3.30;99.90
18160;DHT22;9205;52.032;4.314;2023-12-07T11:47:00;3.90;99.90
18160;DHT22;9205;52.032;4.314;2023-12-07T11:49:30;3.90;99.90
18160;DHT22;9205;52.032;4.314;2023-12-07T11:51:58;3.70;99.90
18160;DHT22;9205;52.032;4.314;2023-12-07T11:54:25;3.80;99.90
18160;DHT22;9205;52.032;4.314;2023-12-07T11:56:53;3.60;99.90
18160;DHT22;9205;52.032;4.314;2023-12-07T11:59:20;4.30;99.90
18160;DHT22;9205;52.032;4.314;2023-12-07T12:01:48;3.50;99.90
18160;DHT22;9205;52.032;4.314;2023-12-07T12:04:16;3.60;99.90
18160;DHT22;9205;52.032;4.314;2023-12-07T12:06:45;3.50;99.90
18160;DHT22;9205;52.032;4.314;2023-12-07T12:09:13;4.20;99.90
18160;DHT22;9205;52.032;4.314;2023-12-07T12:11:45;3.50;99.90
18160;DHT22;9205;52.032;4.314;2023-12-07T12:14:14;3.60;99.90
18160;DHT22;9205;52.032;4.314;2023-12-07T12:16:45;3.50;99.90
18160;DHT22;9205;52.032;4.314;2023-12-07T12:19:13;3.40;99.90
18160;DHT22;9205;52.032;4.314;2023-12-07T12:21:42;3.70;99.90
18160;DHT22;9205;52.032;4.314;2023-12-07T12:24:11;3.80;99.90
18160;DHT22;9205;52.032;4.314;2023-12-07T12:26:41;4.20;99.90
18160;DHT22;9205;52.032;4.314;2023-12-07T12:29:09;3.60;99.90
18160;DHT22;9205;52.032;4.314;2023-12-07T12:31:38;4.20;99.90
18160;DHT22;9205;52.032;4.314;2023-12-07T12:34:06;3.80;99.90
18160;DHT22;9205;52.032;4.314;2023-12-07T12:36:36;4.40;99.90
18160;DHT22;9205;52.032;4.314;2023-12-07T12:39:04;3.60;99.90
18160;DHT22;9205;52.032;4.314;2023-12-07T12:41:35;4.00;99.90
18160;DHT22;9205;52.032;4.314;2023-12-07T12:44:05;3.70;99.90
18160;DHT22;9205;52.032;4.314;2023-12-07T12:46:34;4.20;99.90
18160;DHT22;9205;52.032;4.314;2023-12-07T12:49:03;4.30;99.90
18160;DHT22;9205;52.032;4.314;2023-12-07T12:51:30;3.90;99.90
18160;DHT22;9205;52.032;4.314;2023-12-07T12:53:59;4.20;99.90
18160;DHT22;9205;52.032;4.314;2023-12-07T12:56:27;3.80;99.90
18160;DHT22;9205;52.032;4.314;2023-12-07T12:58:56;3.90;99.90
18160;DHT22;9205;52.032;4.314;2023-12-07T13:01:24;3.80;99.90
18160;DHT22;9205;52.032;4.314;2023-12-07T13:03:51;4.40;99.90
18160;DHT22;9205;52.032;4.314;2023-12-07T13:06:19;4.30;99.90
18160;DHT22;9205;52.032;4.314;2023-12-07T13:08:47;3.70;99.90
18160;DHT22;9205;52.032;4.314;2023-12-07T13:11:15;4.30;99.90
18160;DHT22;9205;52.032;4.314;2023-12-07T13:13:44;3.80;99.90
18160;DHT22;9205;52.032;4.314;2023-12-07T13:16:15;4.50;99.90
18160;DHT22;9205;52.032;4.314;2023-12-07T13:18:43;4.10;99.90
18160;DHT22;9205;52.032;4.314;2023-12-07T13:21:10;3.90;99.90
18160;DHT22;9205;52.032;4.314;2023-12-07T13:23:37;4.20;99.90
18160;DHT22;9205;52.032;4.314;2023-12-07T13:26:05;4.40;99.90
18160;DHT22;9205;52.032;4.314;2023-12-07T13:28:33;4.00;99.90
18160;DHT22;9205;52.032;4.314;2023-12-07T13:31:00;4.00;99.90
18160;DHT22;9205;52.032;4.314;2023-12-07T13:33:29;3.90;99.90
18160;DHT22;9205;52.032;4.314;2023-12-07T13:35:56;4.30;99.90
18160;DHT22;9205;52.032;4.314;2023-12-07T13:38:26;3.90;99.90
18160;DHT22;9205;52.032;4.314;2023-12-07T13:40:55;4.00;99.90
18160;DHT22;9205;52.032;4.314;2023-12-07T13:43:23;4.40;99.90
18160;DHT22;9205;52.032;4.314;2023-12-07T13:45:51;3.80;99.90
18160;DHT22;9205;52.032;4.314;2023-12-07T13:48:18;4.50;99.90
18160;DHT22;9205;52.032;4.314;2023-12-07T13:50:47;4.30;99.90
18160;DHT22;9205;52.032;4.314;2023-12-07T13:53:15;4.20;99.90
18160;DHT22;9205;52.032;4.314;2023-12-07T13:55:45;4.30;99.90
18160;DHT22;9205;52.032;4.314;2023-12-07T13:58:12;4.30;99.90
18160;DHT22;9205;52.032;4.314;2023-12-07T14:00:39;4.50;99.90
18160;DHT22;9205;52.032;4.314;2023-12-07T14:03:12;3.80;99.90
18160;DHT22;9205;52.032;4.314;2023-12-07T14:05:39;4.40;99.90
18160;DHT22;9205;52.032;4.314;2023-12-07T14:08:08;3.80;99.90
18160;DHT22;9205;52.032;4.314;2023-12-07T14:10:36;4.40;99.90
18160;DHT22;9205;52.032;4.314;2023-12-07T14:13:03;3.80;99.90
18160;DHT22;9205;52.032;4.314;2023-12-07T14:15:31;4.10;99.90
18160;DHT22;9205;52.032;4.314;2023-12-07T14:18:01;4.40;99.90
18160;DHT22;9205;52.032;4.314;2023-12-07T14:20:28;4.30;99.90
18160;DHT22;9205;52.032;4.314;2023-12-07T14:22:57;4.10;99.90
18160;DHT22;9205;52.032;4.314;2023-12-07T14:25:31;3.90;99.90
18160;DHT22;9205;52.032;4.314;2023-12-07T14:27:59;4.00;99.90
18160;DHT22;9205;52.032;4.314;2023-12-07T14:30:26;4.30;99.90
18160;DHT22;9205;52.032;4.314;2023-12-07T14:32:53;4.20;99.90
18160;DHT22;9205;52.032;4.314;2023-12-07T14:35:21;3.80;99.90
18160;DHT22;9205;52.032;4.314;2023-12-07T14:37:48;3.60;99.90
18160;DHT22;9205;52.032;4.314;2023-12-07T14:40:15;3.60;99.90
18160;DHT22;9205;52.032;4.314;2023-12-07T14:42:44;3.60;99.90
18160;DHT22;9205;52.032;4.314;2023-12-07T14:45:12;4.00;99.90
18160;DHT22;9205;52.032;4.314;2023-12-07T14:47:40;4.20;99.90
18160;DHT22;9205;52.032;4.314;2023-12-07T14:50:08;4.10;99.90
18160;DHT22;9205;52.032;4.314;2023-12-07T14:52:36;3.80;99.90
18160;DHT22;9205;52.032;4.314;2023-12-07T14:55:04;4.10;99.90
18160;DHT22;9205;52.032;4.314;2023-12-07T14:57:32;4.10;99.90
18160;DHT22;9205;52.032;4.314;2023-12-07T15:00:01;3.40;99.90
18160;DHT22;9205;52.032;4.314;2023-12-07T15:02:29;3.70;99.90
18160;DHT22;9205;52.032;4.314;2023-12-07T15:04:57;4.00;99.90
18160;DHT22;9205;52.032;4.314;2023-12-07T15:07:24;4.10;99.90
18160;DHT22;9205;52.032;4.314;2023-12-07T15:09:51;4.10;99.90
18160;DHT22;9205;52.032;4.314;2023-12-07T15:12:18;3.40;99.90
18160;DHT22;9205;52.032;4.314;2023-12-07T15:14:46;3.70;99.90
18160;DHT22;9205;52.032;4.314;2023-12-07T15:17:14;3.70;99.90
18160;DHT22;9205;52.032;4.314;2023-12-07T15:19:42;4.00;99.90
18160;DHT22;9205;52.032;4.314;2023-12-07T15:22:09;4.00;99.90
18160;DHT22;9205;52.032;4.314;2023-12-07T15:24:37;3.30;99.90
18160;DHT22;9205;52.032;4.314;2023-12-07T15:27:04;3.30;99.90
18160;DHT22;9205;52.032;4.314;2023-12-07T15:29:33;3.50;99.90
18160;DHT22;9205;52.032;4.314;2023-12-07T15:32:00;3.30;99.90
18160;DHT22;9205;52.032;4.314;2023-12-07T15:34:29;3.80;99.90
18160;DHT22;9205;52.032;4.314;2023-12-07T15:36:57;4.00;99.90
18160;DHT22;9205;52.032;4.314;2023-12-07T15:39:24;3.50;99.90
18160;DHT22;9205;52.032;4.314;2023-12-07T15:41:52;3.80;99.90
18160;DHT22;9205;52.032;4.314;2023-12-07T15:44:19;3.30;99.90
18160;DHT22;9205;52.032;4.314;2023-12-07T15:46:46;3.30;99.90
18160;DHT22;9205;52.032;4.314;2023-12-07T15:49:13;3.90;99.90
18160;DHT22;9205;52.032;4.314;2023-12-07T15:51:42;3.90;99.90
18160;DHT22;9205;52.032;4.314;2023-12-07T15:54:09;4.00;99.90
18160;DHT22;9205;52.032;4.314;2023-12-07T15:56:39;3.90;99.90
18160;DHT22;9205;52.032;4.314;2023-12-07T15:59:07;3.30;99.90
18160;DHT22;9205;52.032;4.314;2023-12-07T16:01:34;3.90;99.90
18160;DHT22;9205;52.032;4.314;2023-12-07T16:04:02;3.20;99.90
18160;DHT22;9205;52.032;4.314;2023-12-07T16:06:29;3.20;99.90
18160;DHT22;9205;52.032;4.314;2023-12-07T16:08:58;3.80;99.90